createdAt,value
2023-02-18T00:00:29.220Z,100.00
2023-02-18T00:02:57.148Z,100.00
2023-02-18T00:05:24.915Z,100.00
2023-02-18T00:07:54.048Z,100.00
2023-02-18T00:10:22.059Z,100.00
2023-02-18T00:12:49.760Z,100.00
2023-02-18T00:15:17.596Z,100.00
2023-02-18T00:17:45.295Z,100.00
2023-02-18T00:20:13.856Z,98.83
2023-02-18T00:22:41.618Z,99.21
2023-02-18T00:25:10.834Z,99.80
2023-02-18T00:27:38.662Z,100.00
2023-02-18T00:30:07.759Z,100.00
2023-02-18T00:32:36.090Z,100.00
2023-02-18T00:35:04.024Z,99.37
2023-02-18T00:37:33.377Z,99.59
2023-02-18T00:40:02.812Z,100.00
2023-02-18T00:42:31.921Z,97.69
2023-02-18T00:44:59.737Z,96.59
2023-02-18T00:47:27.563Z,96.94
2023-02-18T00:49:55.259Z,99.29
2023-02-18T00:52:23.007Z,100.00
2023-02-18T00:54:51.830Z,99.47
2023-02-18T00:57:19.555Z,99.68
2023-02-18T00:59:48.754Z,98.57
2023-02-18T01:02:16.539Z,96.95
2023-02-18T01:04:44.305Z,96.31
2023-02-18T01:07:12.245Z,97.31
2023-02-18T01:09:40.102Z,97.34
2023-02-18T01:12:08.181Z,96.43
2023-02-18T01:14:36.028Z,97.32
2023-02-18T01:17:05.179Z,96.59
2023-02-18T01:19:33.095Z,98.86
2023-02-18T01:22:00.798Z,98.42
2023-02-18T01:24:28.664Z,100.00
2023-02-18T01:26:56.418Z,98.95
2023-02-18T01:29:24.307Z,98.54
2023-02-18T01:31:52.225Z,97.32
2023-02-18T01:34:21.455Z,97.15
2023-02-18T01:36:49.199Z,97.53
2023-02-18T01:39:16.983Z,99.25
2023-02-18T01:41:44.722Z,97.61
2023-02-18T01:44:14.540Z,98.89
2023-02-18T01:46:42.360Z,98.63
2023-02-18T01:49:11.823Z,98.20
2023-02-18T01:51:44.693Z,99.91
2023-02-18T01:54:16.020Z,98.06
2023-02-18T01:56:48.556Z,99.67
2023-02-18T01:59:22.556Z,99.41
2023-02-18T02:01:50.669Z,98.09
2023-02-18T02:04:19.033Z,100.00
2023-02-18T02:06:48.159Z,98.24
2023-02-18T02:09:18.602Z,97.96
2023-02-18T02:12:05.214Z,97.63
2023-02-18T02:14:56.286Z,95.69
2023-02-18T02:17:34.525Z,97.81
2023-02-18T02:20:44.039Z,97.62
2023-02-18T02:23:42.639Z,99.27
2023-02-18T02:26:36.265Z,97.52
2023-02-18T02:29:26.812Z,98.50
2023-02-18T02:32:08.429Z,98.13
2023-02-18T02:34:46.626Z,97.42
2023-02-18T02:37:25.326Z,98.33
2023-02-18T02:40:02.675Z,99.23
2023-02-18T02:42:41.221Z,99.29
2023-02-18T02:45:16.990Z,99.62
2023-02-18T02:47:50.955Z,100.00
2023-02-18T02:50:27.587Z,100.00
2023-02-18T02:53:00.432Z,100.00
2023-02-18T02:55:28.257Z,100.00
2023-02-18T02:57:57.206Z,100.00
2023-02-18T03:00:38.387Z,98.70
2023-02-18T03:03:36.056Z,99.86
2023-02-18T03:06:22.436Z,100.00
2023-02-18T03:08:58.691Z,100.00
2023-02-18T03:11:31.104Z,99.49
2023-02-18T03:14:07.935Z,99.27
2023-02-18T03:16:40.864Z,97.65
2023-02-18T03:19:14.821Z,97.06
2023-02-18T03:21:48.983Z,97.14
2023-02-18T03:24:21.684Z,97.06
2023-02-18T03:26:54.795Z,97.39
2023-02-18T03:29:23.892Z,96.54
2023-02-18T03:31:55.764Z,96.42
2023-02-18T03:34:27.978Z,95.66
2023-02-18T03:36:59.025Z,97.01
2023-02-18T03:39:29.725Z,94.82
2023-02-18T03:41:57.941Z,94.21
2023-02-18T03:44:26.716Z,94.13
2023-02-18T03:46:54.974Z,94.89
2023-02-18T03:49:22.804Z,96.48
2023-02-18T03:51:50.590Z,96.80
2023-02-18T03:54:20.321Z,95.35
2023-02-18T03:56:48.036Z,97.12
2023-02-18T03:59:15.899Z,98.36
2023-02-18T04:01:43.626Z,97.30
2023-02-18T04:04:11.436Z,98.26
2023-02-18T04:06:39.261Z,97.95
2023-02-18T04:09:09.171Z,97.91
2023-02-18T04:11:39.488Z,97.90
2023-02-18T04:14:08.091Z,96.43
2023-02-18T04:16:35.991Z,100.00
2023-02-18T04:19:03.811Z,99.39
2023-02-18T04:21:31.507Z,97.69
2023-02-18T04:23:59.288Z,99.90
2023-02-18T04:26:27.110Z,100.00
2023-02-18T04:28:56.179Z,99.24
2023-02-18T04:31:24.089Z,98.81
2023-02-18T04:33:52.448Z,96.76
2023-02-18T04:36:20.234Z,95.29
2023-02-18T04:38:47.989Z,98.46
2023-02-18T04:41:15.800Z,96.68
2023-02-18T04:43:43.634Z,98.38
2023-02-18T04:46:12.869Z,97.09
2023-02-18T04:48:40.821Z,100.00
2023-02-18T04:51:08.727Z,99.55
2023-02-18T04:53:36.786Z,98.38
2023-02-18T04:56:05.063Z,100.00
2023-02-18T04:58:32.859Z,100.00
2023-02-18T05:01:01.585Z,100.00
2023-02-18T05:03:33.832Z,100.00
2023-02-18T05:06:01.649Z,100.00
2023-02-18T05:08:29.377Z,100.00
2023-02-18T05:10:57.395Z,98.40
2023-02-18T05:13:25.175Z,96.28
2023-02-18T05:15:54.812Z,98.19
2023-02-18T05:18:22.579Z,99.79
2023-02-18T05:20:51.716Z,99.63
2023-02-18T05:23:20.245Z,100.00
2023-02-18T05:25:48.322Z,100.00
2023-02-18T05:28:16.044Z,100.00
2023-02-18T05:30:43.895Z,100.00
2023-02-18T05:33:11.938Z,100.00
2023-02-18T05:35:39.762Z,100.00
2023-02-18T05:38:09.888Z,100.00
2023-02-18T05:40:37.631Z,100.00
2023-02-18T05:43:05.721Z,100.00
2023-02-18T05:45:33.471Z,100.00
2023-02-18T05:48:01.326Z,100.00
2023-02-18T05:50:29.301Z,100.00
2023-02-18T05:52:57.151Z,100.00
2023-02-18T05:55:26.303Z,100.00
2023-02-18T05:57:54.386Z,100.00
2023-02-18T06:00:22.505Z,100.00
2023-02-18T06:02:50.430Z,100.00
2023-02-18T06:05:18.177Z,100.00
2023-02-18T06:07:45.933Z,100.00
2023-02-18T06:10:13.831Z,100.00
2023-02-18T06:12:43.001Z,100.00
2023-02-18T06:15:10.992Z,100.00
2023-02-18T06:17:38.810Z,100.00
2023-02-18T06:20:07.939Z,98.65
2023-02-18T06:22:35.639Z,100.00
2023-02-18T06:25:03.434Z,100.00
2023-02-18T06:27:31.173Z,100.00
2023-02-18T06:30:00.410Z,100.00
2023-02-18T06:32:28.255Z,100.00
2023-02-18T06:34:56.011Z,99.70
2023-02-18T06:37:23.716Z,100.00
2023-02-18T06:39:51.502Z,98.85
2023-02-18T06:42:19.194Z,97.94
2023-02-18T06:44:46.944Z,99.68
2023-02-18T06:47:16.075Z,98.62
2023-02-18T06:49:43.849Z,100.00
2023-02-18T06:52:11.603Z,100.00
2023-02-18T06:54:39.430Z,100.00
2023-02-18T06:57:07.795Z,100.00
2023-02-18T06:59:35.672Z,100.00
2023-02-18T07:02:03.427Z,99.46
2023-02-18T07:04:32.592Z,100.00
2023-02-18T07:07:00.359Z,99.62
2023-02-18T07:09:28.124Z,99.05
2023-02-18T07:11:55.938Z,100.00
2023-02-18T07:14:24.277Z,99.80
2023-02-18T07:16:52.113Z,99.77
2023-02-18T07:19:19.856Z,100.00
2023-02-18T07:21:48.994Z,98.89
2023-02-18T07:24:16.808Z,100.00
2023-02-18T07:26:44.551Z,100.00
2023-02-18T07:29:12.398Z,100.00
2023-02-18T07:31:40.291Z,99.55
2023-02-18T07:34:08.041Z,100.00
2023-02-18T07:36:35.819Z,100.00
2023-02-18T07:39:05.053Z,100.00
2023-02-18T07:41:32.921Z,100.00
2023-02-18T07:44:00.763Z,99.65
2023-02-18T07:46:28.523Z,98.17
2023-02-18T07:48:57.501Z,100.00
2023-02-18T07:51:25.604Z,100.00
2023-02-18T07:53:53.427Z,100.00
2023-02-18T07:56:22.887Z,98.95
2023-02-18T07:58:50.637Z,100.00
2023-02-18T08:01:18.564Z,100.00
2023-02-18T08:03:46.352Z,100.00
2023-02-18T08:06:22.727Z,100.00
2023-02-18T08:08:50.527Z,98.24
2023-02-18T08:11:19.784Z,97.78
2023-02-18T08:13:49.234Z,100.00
2023-02-18T08:16:17.383Z,97.80
2023-02-18T08:18:45.274Z,98.74
2023-02-18T08:21:13.026Z,97.99
2023-02-18T08:23:40.874Z,96.84
2023-02-18T08:26:09.587Z,98.53
2023-02-18T08:28:37.990Z,96.33
2023-02-18T08:31:07.546Z,95.33
2023-02-18T08:33:35.427Z,97.44
2023-02-18T08:36:08.361Z,94.72
2023-02-18T08:38:36.255Z,96.35
2023-02-18T08:41:05.666Z,95.03
2023-02-18T08:43:33.586Z,93.35
2023-02-18T08:46:01.884Z,95.17
2023-02-18T08:48:31.770Z,95.01
2023-02-18T08:51:00.969Z,93.90
2023-02-18T08:53:29.406Z,93.95
2023-02-18T08:55:57.730Z,95.63
2023-02-18T08:58:26.120Z,94.63
2023-02-18T09:00:54.003Z,96.48
2023-02-18T09:03:21.713Z,94.80
2023-02-18T09:05:52.322Z,95.31
2023-02-18T09:08:20.461Z,93.35
2023-02-18T09:10:48.846Z,94.98
2023-02-18T09:13:17.134Z,92.84
2023-02-18T09:15:45.837Z,97.23
2023-02-18T09:18:14.035Z,97.38
2023-02-18T09:20:41.903Z,95.32
2023-02-18T09:23:11.071Z,92.46
2023-02-18T09:25:41.427Z,91.22
2023-02-18T09:28:09.651Z,93.00
2023-02-18T09:30:37.852Z,92.18
2023-02-18T09:33:05.724Z,92.99
2023-02-18T09:35:33.455Z,92.46
2023-02-18T09:38:01.470Z,96.10
2023-02-18T09:40:35.939Z,94.46
2023-02-18T09:43:04.351Z,91.88
2023-02-18T09:45:32.084Z,87.03
2023-02-18T09:48:00.671Z,87.12
2023-02-18T09:50:31.348Z,86.93
2023-02-18T09:53:00.382Z,87.96
2023-02-18T09:55:32.714Z,88.86
2023-02-18T09:58:03.705Z,89.08
2023-02-18T10:00:36.362Z,90.46
2023-02-18T10:03:08.377Z,90.04
2023-02-18T10:05:38.184Z,88.54
2023-02-18T10:08:08.508Z,88.11
2023-02-18T10:10:43.104Z,89.93
2023-02-18T10:13:16.056Z,89.64
2023-02-18T10:15:44.585Z,88.13
2023-02-18T10:18:26.380Z,84.90
2023-02-18T10:20:58.427Z,86.51
2023-02-18T10:23:26.745Z,85.52
2023-02-18T10:25:57.751Z,87.27
2023-02-18T10:28:27.548Z,85.91
2023-02-18T10:31:00.664Z,88.28
2023-02-18T10:33:34.691Z,91.56
2023-02-18T10:36:14.871Z,92.46
2023-02-18T10:38:54.853Z,96.78
2023-02-18T10:41:32.716Z,95.50
2023-02-18T10:44:08.574Z,93.63
2023-02-18T10:46:44.549Z,91.61
2023-02-18T10:49:31.859Z,91.32
2023-02-18T10:52:03.511Z,90.34
2023-02-18T10:54:51.173Z,86.88
2023-02-18T10:57:21.855Z,86.31
2023-02-18T10:59:58.363Z,84.46
2023-02-18T11:02:30.763Z,84.70
2023-02-18T11:05:01.876Z,82.33
2023-02-18T11:07:34.562Z,83.30
2023-02-18T11:10:11.184Z,87.19
2023-02-18T11:12:47.439Z,84.42
2023-02-18T11:15:20.959Z,83.70
2023-02-18T11:17:50.483Z,80.48
2023-02-18T11:20:30.148Z,79.72
2023-02-18T11:23:18.387Z,82.29
2023-02-18T11:25:59.738Z,84.78
2023-02-18T11:28:40.559Z,83.96
2023-02-18T11:31:10.664Z,84.94
2023-02-18T11:33:41.747Z,86.01
2023-02-18T11:36:19.530Z,83.58
2023-02-18T11:38:51.090Z,82.36
2023-02-18T11:41:21.935Z,83.17
2023-02-18T11:43:54.211Z,81.80
2023-02-18T11:46:24.512Z,80.33
2023-02-18T11:48:53.170Z,80.23
2023-02-18T11:51:24.394Z,80.31
2023-02-18T11:53:59.776Z,79.76
2023-02-18T11:56:30.751Z,80.01
2023-02-18T11:59:00.578Z,84.05
2023-02-18T12:01:41.132Z,83.46
2023-02-18T12:04:14.687Z,84.74
2023-02-18T12:06:50.805Z,82.48
2023-02-18T12:09:28.200Z,80.48
2023-02-18T12:12:00.277Z,77.30
2023-02-18T12:14:29.564Z,78.71
2023-02-18T12:17:21.325Z,79.05
2023-02-18T12:20:26.258Z,80.99
2023-02-18T12:23:04.069Z,81.38
2023-02-18T12:25:41.696Z,80.82
2023-02-18T12:28:23.493Z,82.34
2023-02-18T12:31:11.176Z,80.75
2023-02-18T12:33:53.052Z,80.06
2023-02-18T12:36:32.235Z,79.26
2023-02-18T12:39:11.722Z,80.04
2023-02-18T12:41:51.725Z,76.61
2023-02-18T12:44:33.280Z,76.99
2023-02-18T12:47:25.795Z,79.68
2023-02-18T12:50:22.733Z,78.55
2023-02-18T12:53:04.767Z,79.97
2023-02-18T12:55:49.928Z,77.29
2023-02-18T12:58:31.680Z,78.02
2023-02-18T13:01:17.688Z,75.79
2023-02-18T13:04:21.248Z,75.77
2023-02-18T13:07:04.143Z,74.87
2023-02-18T13:09:44.728Z,75.35
2023-02-18T13:12:20.047Z,74.21
2023-02-18T13:14:51.675Z,75.88
2023-02-18T13:17:21.712Z,76.14
2023-02-18T13:19:53.808Z,76.35
2023-02-18T13:22:24.971Z,73.05
2023-02-18T13:24:56.218Z,75.39
2023-02-18T13:27:30.726Z,73.90
2023-02-18T13:30:15.115Z,74.86
2023-02-18T13:32:52.766Z,73.34
2023-02-18T13:35:26.688Z,75.14
2023-02-18T13:38:12.818Z,73.11
2023-02-18T13:40:41.438Z,73.22
2023-02-18T13:43:20.775Z,71.77
2023-02-18T13:46:05.522Z,75.46
2023-02-18T13:48:44.658Z,73.78
2023-02-18T13:51:16.301Z,75.15
2023-02-18T13:53:51.720Z,74.90
2023-02-18T13:56:28.394Z,75.27
2023-02-18T13:59:00.593Z,75.54
2023-02-18T14:01:40.640Z,76.70
2023-02-18T14:04:49.333Z,74.70
2023-02-18T14:07:50.189Z,76.31
2023-02-18T14:10:35.798Z,74.86
2023-02-18T14:13:21.570Z,75.57
2023-02-18T14:15:56.837Z,74.56
2023-02-18T14:18:55.605Z,75.59
2023-02-18T14:21:37.111Z,76.42
2023-02-18T14:24:08.814Z,75.25
2023-02-18T14:26:41.107Z,76.43
2023-02-18T14:29:16.721Z,75.87
2023-02-18T14:31:55.180Z,75.88
2023-02-18T14:34:47.228Z,75.86
2023-02-18T14:37:28.420Z,75.77
2023-02-18T14:40:09.153Z,77.63
2023-02-18T14:42:46.919Z,77.50
2023-02-18T14:45:27.519Z,79.16
2023-02-18T14:48:17.625Z,78.68
2023-02-18T14:50:50.370Z,76.92
2023-02-18T14:53:21.301Z,75.46
2023-02-18T14:55:52.876Z,73.97
2023-02-18T14:58:31.088Z,75.35
2023-02-18T15:00:58.835Z,74.47
2023-02-18T15:03:29.377Z,73.80
2023-02-18T15:05:57.181Z,73.60
2023-02-18T15:08:26.458Z,73.14
2023-02-18T15:11:01.304Z,76.59
2023-02-18T15:13:31.745Z,74.37
2023-02-18T15:16:03.967Z,74.96
2023-02-18T15:18:36.467Z,73.63
2023-02-18T15:21:06.949Z,75.24
2023-02-18T15:23:37.839Z,75.98
2023-02-18T15:26:09.757Z,78.48
2023-02-18T15:28:43.998Z,75.89
2023-02-18T15:31:15.172Z,77.55
2023-02-18T15:33:45.028Z,77.04
2023-02-18T15:36:15.736Z,78.51
2023-02-18T15:38:44.462Z,77.43
2023-02-18T15:41:15.864Z,77.73
2023-02-18T15:43:54.295Z,77.48
2023-02-18T15:46:26.171Z,77.49
2023-02-18T15:48:56.502Z,77.18
2023-02-18T15:51:27.287Z,77.87
2023-02-18T15:53:57.818Z,78.83
2023-02-18T15:56:33.725Z,78.76
2023-02-18T15:59:16.210Z,81.57
2023-02-18T16:01:44.203Z,80.68
2023-02-18T16:04:16.209Z,80.18
2023-02-18T16:06:47.778Z,79.99
2023-02-18T16:09:20.039Z,78.48
2023-02-18T16:11:52.852Z,78.18
2023-02-18T16:14:30.891Z,79.48
2023-02-18T16:17:14.940Z,78.46
2023-02-18T16:20:03.530Z,77.82
2023-02-18T16:22:36.795Z,79.53
2023-02-18T16:25:16.277Z,81.81
2023-02-18T16:27:56.500Z,81.38
2023-02-18T16:30:25.957Z,81.57
2023-02-18T16:32:54.790Z,81.22
2023-02-18T16:35:24.064Z,80.24
2023-02-18T16:37:52.070Z,80.70
2023-02-18T16:40:26.405Z,78.98
2023-02-18T16:42:56.942Z,79.38
2023-02-18T16:45:32.236Z,81.16
2023-02-18T16:48:00.270Z,82.92
2023-02-18T16:50:30.859Z,81.41
2023-02-18T16:52:59.056Z,81.43
2023-02-18T16:55:29.834Z,81.80
2023-02-18T16:57:59.145Z,82.47
2023-02-18T17:00:27.007Z,82.06
2023-02-18T17:02:57.899Z,81.34
2023-02-18T17:05:27.509Z,82.45
2023-02-18T17:07:55.931Z,81.91
2023-02-18T17:10:23.827Z,83.27
2023-02-18T17:12:51.556Z,83.47
2023-02-18T17:15:29.927Z,82.61
2023-02-18T17:17:59.263Z,83.29
2023-02-18T17:20:28.222Z,83.69
2023-02-18T17:22:57.111Z,83.88
2023-02-18T17:25:30.670Z,85.32
2023-02-18T17:27:58.797Z,85.35
2023-02-18T17:30:28.150Z,85.83
2023-02-18T17:32:56.188Z,85.40
2023-02-18T17:35:24.606Z,85.95
2023-02-18T17:37:52.400Z,86.39
2023-02-18T17:40:22.493Z,84.95
2023-02-18T17:42:51.127Z,85.28
2023-02-18T17:45:22.975Z,84.87
2023-02-18T17:47:52.187Z,85.86
2023-02-18T17:50:20.135Z,84.42
2023-02-18T17:52:47.936Z,83.75
2023-02-18T17:55:21.596Z,84.47
2023-02-18T17:57:49.463Z,85.43
2023-02-18T18:00:19.775Z,85.84
2023-02-18T18:02:47.764Z,84.47
2023-02-18T18:05:23.151Z,83.64
2023-02-18T18:07:51.644Z,84.08
2023-02-18T18:10:21.917Z,83.67
2023-02-18T18:12:50.364Z,84.06
2023-02-18T18:15:25.948Z,83.72
2023-02-18T18:17:54.391Z,83.17
2023-02-18T18:20:24.415Z,83.21
2023-02-18T18:22:53.678Z,84.06
2023-02-18T18:25:24.298Z,83.61
2023-02-18T18:27:53.757Z,82.85
2023-02-18T18:30:23.653Z,83.10
2023-02-18T18:32:51.815Z,83.24
2023-02-18T18:35:27.404Z,82.84
2023-02-18T18:37:55.871Z,83.71
2023-02-18T18:40:26.529Z,84.12
2023-02-18T18:42:54.826Z,84.15
2023-02-18T18:45:25.128Z,83.88
2023-02-18T18:47:53.659Z,83.81
2023-02-18T18:50:22.916Z,83.41
2023-02-18T18:52:53.348Z,83.91
2023-02-18T18:55:25.619Z,84.25
2023-02-18T18:57:54.635Z,84.29
2023-02-18T19:00:24.735Z,86.17
2023-02-18T19:02:52.610Z,89.17
2023-02-18T19:05:27.602Z,87.79
2023-02-18T19:07:57.369Z,85.51
2023-02-18T19:10:27.097Z,85.06
2023-02-18T19:12:55.669Z,84.79
2023-02-18T19:15:24.359Z,84.13
2023-02-18T19:17:53.648Z,85.50
2023-02-18T19:20:23.504Z,86.34
2023-02-18T19:22:51.563Z,87.80
2023-02-18T19:25:21.507Z,89.42
2023-02-18T19:27:50.064Z,91.65
2023-02-18T19:30:19.939Z,88.48
2023-02-18T19:32:47.715Z,88.48
2023-02-18T19:35:15.624Z,88.68
2023-02-18T19:37:43.863Z,89.69
2023-02-18T19:40:14.083Z,88.06
2023-02-18T19:42:43.470Z,88.78
2023-02-18T19:45:11.813Z,88.96
2023-02-18T19:47:39.930Z,90.54
2023-02-18T19:50:10.285Z,91.89
2023-02-18T19:52:38.089Z,89.98
2023-02-18T19:55:06.480Z,90.53
2023-02-18T19:57:35.184Z,89.49
2023-02-18T20:00:05.852Z,86.93
2023-02-18T20:02:33.599Z,88.42
2023-02-18T20:05:02.310Z,88.20
2023-02-18T20:07:31.156Z,87.89
2023-02-18T20:09:59.045Z,89.14
2023-02-18T20:12:27.136Z,90.03
2023-02-18T20:14:55.180Z,89.31
2023-02-18T20:17:24.290Z,90.64
2023-02-18T20:19:52.089Z,89.45
2023-02-18T20:22:19.919Z,88.80
2023-02-18T20:24:47.948Z,91.35
2023-02-18T20:27:15.818Z,90.90
2023-02-18T20:29:43.535Z,89.58
2023-02-18T20:32:11.449Z,89.78
2023-02-18T20:34:40.631Z,89.99
2023-02-18T20:37:08.432Z,88.56
2023-02-18T20:39:36.152Z,87.84
2023-02-18T20:42:15.468Z,87.31
2023-02-18T20:44:43.924Z,86.90
2023-02-18T20:47:13.455Z,87.65
2023-02-18T20:49:42.805Z,87.09
2023-02-18T20:52:11.493Z,85.78
2023-02-18T20:54:39.965Z,89.39
2023-02-18T20:57:08.866Z,87.43
2023-02-18T20:59:36.699Z,87.63
2023-02-18T21:02:04.688Z,89.00
2023-02-18T21:04:32.602Z,89.00
2023-02-18T21:07:01.741Z,88.52
2023-02-18T21:09:29.616Z,88.77
2023-02-18T21:11:57.366Z,88.80
2023-02-18T21:14:26.021Z,88.92
2023-02-18T21:16:53.871Z,88.25
2023-02-18T21:19:21.864Z,88.12
2023-02-18T21:21:49.614Z,88.26
2023-02-18T21:24:18.748Z,87.99
2023-02-18T21:26:46.469Z,89.68
2023-02-18T21:29:16.951Z,89.66
2023-02-18T21:31:44.962Z,93.02
2023-02-18T21:34:15.385Z,94.33
2023-02-18T21:36:44.192Z,94.18
2023-02-18T21:39:12.357Z,93.71
2023-02-18T21:41:41.639Z,92.71
2023-02-18T21:44:09.610Z,94.51
2023-02-18T21:46:38.515Z,95.25
2023-02-18T21:49:06.907Z,94.20
2023-02-18T21:51:57.467Z,94.13
2023-02-18T21:54:28.236Z,96.10
2023-02-18T21:56:58.361Z,96.20
2023-02-18T21:59:28.367Z,95.08
2023-02-18T22:01:56.621Z,95.70
2023-02-18T22:04:25.349Z,96.12
2023-02-18T22:06:53.585Z,96.00
2023-02-18T22:09:21.469Z,95.17
2023-02-18T22:11:49.219Z,96.49
2023-02-18T22:14:19.339Z,98.82
2023-02-18T22:16:47.133Z,99.36
2023-02-18T22:19:15.879Z,97.51
2023-02-18T22:21:44.092Z,97.64
2023-02-18T22:24:14.378Z,96.07
2023-02-18T22:26:43.840Z,95.62
2023-02-18T22:29:12.890Z,96.01
2023-02-18T22:31:42.581Z,94.24
2023-02-18T22:34:11.434Z,95.37
2023-02-18T22:36:39.446Z,95.40
2023-02-18T22:39:08.431Z,95.68
2023-02-18T22:41:36.355Z,96.90
2023-02-18T22:44:06.204Z,96.43
2023-02-18T22:46:35.672Z,95.43
2023-02-18T22:49:06.607Z,94.86
2023-02-18T22:51:37.693Z,93.88
2023-02-18T22:54:06.973Z,93.46
2023-02-18T22:56:34.970Z,93.45
2023-02-18T22:59:02.802Z,95.98
2023-02-18T23:01:33.463Z,96.30
2023-02-18T23:04:07.854Z,97.21
2023-02-18T23:06:36.714Z,96.76
2023-02-18T23:09:04.736Z,97.54
2023-02-18T23:11:32.561Z,96.87
2023-02-18T23:14:17.875Z,96.74
2023-02-18T23:17:03.826Z,100.00
2023-02-18T23:19:33.943Z,99.23
2023-02-18T23:22:01.873Z,98.03
2023-02-18T23:24:29.666Z,99.88
2023-02-18T23:26:57.419Z,99.15
2023-02-18T23:29:25.194Z,100.00
2023-02-18T23:31:52.953Z,100.00
2023-02-18T23:34:20.835Z,100.00
2023-02-18T23:36:49.960Z,100.00
2023-02-18T23:39:20.339Z,100.00
2023-02-18T23:41:48.623Z,100.00
2023-02-18T23:44:17.831Z,100.00
2023-02-18T23:46:45.789Z,100.00
2023-02-18T23:49:16.192Z,100.00
2023-02-18T23:51:44.443Z,100.00
2023-02-18T23:54:13.608Z,100.00
2023-02-18T23:56:41.592Z,100.00
2023-02-18T23:59:09.365Z,100.00
